createdAt,value
2023-01-25T00:02:03.593Z,-2.52
2023-01-25T00:05:06.792Z,-2.68
2023-01-25T00:08:09.427Z,-2.50
2023-01-25T00:11:12.131Z,-2.81
2023-01-25T00:14:15.687Z,-2.87
2023-01-25T00:17:18.138Z,-2.88
2023-01-25T00:20:20.590Z,-2.92
2023-01-25T00:23:22.957Z,-2.92
2023-01-25T00:26:25.318Z,-2.74
2023-01-25T00:29:27.700Z,-2.65
2023-01-25T00:32:42.592Z,-2.80
2023-01-25T00:35:46.161Z,-2.81
2023-01-25T00:38:54.271Z,-2.63
2023-01-25T00:41:56.765Z,-2.69
2023-01-25T00:44:59.330Z,-2.73
2023-01-25T00:48:01.735Z,-2.80
2023-01-25T00:51:04.383Z,-2.70
2023-01-25T00:54:06.835Z,-2.64
2023-01-25T00:57:10.009Z,-2.46
2023-01-25T01:00:13.360Z,-2.57
2023-01-25T01:03:17.252Z,-2.61
2023-01-25T01:06:21.321Z,-2.62
2023-01-25T01:09:24.644Z,-2.44
2023-01-25T01:12:28.264Z,-2.53
2023-01-25T01:15:30.743Z,-2.52
2023-01-25T01:18:42.647Z,-2.42
2023-01-25T01:21:44.941Z,-2.52
2023-01-25T01:24:49.750Z,-2.32
2023-01-25T01:27:52.045Z,-2.27
2023-01-25T01:30:54.656Z,-2.25
2023-01-25T01:33:58.762Z,-2.23
2023-01-25T01:37:01.625Z,-2.30
2023-01-25T01:40:04.110Z,-2.39
2023-01-25T01:43:14.343Z,-2.13
2023-01-25T01:46:35.274Z,-2.65
2023-01-25T01:49:37.855Z,-2.79
2023-01-25T01:52:47.980Z,-2.60
2023-01-25T01:55:50.477Z,-2.66
2023-01-25T01:58:54.305Z,-2.66
2023-01-25T02:01:57.191Z,-2.69
2023-01-25T02:05:02.323Z,-2.60
2023-01-25T02:08:06.074Z,-2.40
2023-01-25T02:11:10.124Z,-2.31
2023-01-25T02:14:12.636Z,-2.53
2023-01-25T02:17:15.337Z,-2.39
2023-01-25T02:20:37.971Z,-2.36
2023-01-25T02:23:48.694Z,-2.35
2023-01-25T02:26:51.125Z,-2.74
2023-01-25T02:29:53.651Z,-2.54
2023-01-25T02:32:58.373Z,-2.68
2023-01-25T02:36:05.945Z,-2.54
2023-01-25T02:39:11.161Z,-2.40
2023-01-25T02:42:13.787Z,-2.16
2023-01-25T02:45:20.994Z,-2.83
2023-01-25T02:48:23.517Z,-2.38
2023-01-25T02:51:28.156Z,-2.89
2023-01-25T02:54:31.326Z,-3.07
2023-01-25T02:57:33.737Z,-2.78
2023-01-25T03:00:36.500Z,-2.93
2023-01-25T03:03:39.864Z,-2.84
2023-01-25T03:06:42.709Z,-2.67
2023-01-25T03:09:45.227Z,-2.40
2023-01-25T03:12:47.822Z,-2.79
2023-01-25T03:15:50.338Z,-3.02
2023-01-25T03:18:56.790Z,-2.66
2023-01-25T03:22:00.453Z,-2.43
2023-01-25T03:25:03.594Z,-2.49
2023-01-25T03:28:06.426Z,-2.69
2023-01-25T03:31:11.872Z,-2.84
2023-01-25T03:34:14.492Z,-2.50
2023-01-25T03:37:18.699Z,-2.70
2023-01-25T03:40:21.390Z,-2.54
2023-01-25T03:43:25.953Z,-2.57
2023-01-25T03:46:29.619Z,-2.54
2023-01-25T03:49:32.157Z,-2.82
2023-01-25T03:52:40.802Z,-2.48
2023-01-25T03:55:43.825Z,-2.49
2023-01-25T03:58:46.747Z,-2.48
2023-01-25T04:01:49.371Z,-2.41
2023-01-25T04:04:51.963Z,-2.86
2023-01-25T04:07:56.457Z,-2.95
2023-01-25T04:11:09.458Z,-2.95
2023-01-25T04:14:12.047Z,-2.80
2023-01-25T04:17:21.648Z,-2.81
2023-01-25T04:20:28.102Z,-2.73
2023-01-25T04:23:31.638Z,-2.46
2023-01-25T04:26:34.008Z,-2.62
2023-01-25T04:29:41.486Z,-2.81
2023-01-25T04:32:48.315Z,-2.57
2023-01-25T04:36:05.979Z,-2.44
2023-01-25T04:39:08.507Z,-2.64
2023-01-25T04:42:12.460Z,-2.47
2023-01-25T04:45:15.772Z,-2.66
2023-01-25T04:48:18.773Z,-2.48
2023-01-25T04:51:26.620Z,-2.48
2023-01-25T04:54:29.252Z,-2.59
2023-01-25T04:57:31.765Z,-2.63
2023-01-25T05:00:34.588Z,-2.40
2023-01-25T05:03:38.143Z,-2.62
2023-01-25T05:06:46.813Z,-2.58
2023-01-25T05:09:49.241Z,-2.38
2023-01-25T05:12:51.680Z,-2.81
2023-01-25T05:15:56.402Z,-2.87
2023-01-25T05:18:59.086Z,-3.03
2023-01-25T05:22:20.901Z,-2.90
2023-01-25T05:25:45.418Z,-2.91
2023-01-25T05:28:49.254Z,-2.99
2023-01-25T05:32:03.306Z,-3.11
2023-01-25T05:35:05.870Z,-2.73
2023-01-25T05:38:08.260Z,-2.80
2023-01-25T05:41:11.561Z,-2.95
2023-01-25T05:44:14.365Z,-2.57
2023-01-25T05:47:21.548Z,-2.88
2023-01-25T05:50:24.970Z,-2.63
2023-01-25T05:53:36.318Z,-2.68
2023-01-25T05:56:39.170Z,-2.57
2023-01-25T05:59:41.680Z,-2.52
2023-01-25T06:02:46.315Z,-2.54
2023-01-25T06:05:56.772Z,-2.53
2023-01-25T06:08:59.461Z,-2.73
2023-01-25T06:12:01.916Z,-2.88
2023-01-25T06:15:04.906Z,-2.68
2023-01-25T06:18:08.450Z,-2.65
2023-01-25T06:21:50.932Z,-2.67
2023-01-25T06:24:53.246Z,-2.75
2023-01-25T06:27:56.142Z,-2.89
2023-01-25T06:31:08.677Z,-2.79
2023-01-25T06:34:11.159Z,-2.74
2023-01-25T06:37:14.295Z,-2.66
2023-01-25T06:40:17.283Z,-2.79
2023-01-25T06:43:19.650Z,-2.76
2023-01-25T06:46:22.702Z,-2.79
2023-01-25T06:49:25.277Z,-3.47
2023-01-25T06:52:27.813Z,-3.34
2023-01-25T06:55:30.255Z,-2.80
2023-01-25T06:58:33.283Z,-2.84
2023-01-25T07:01:35.762Z,-2.76
2023-01-25T07:04:38.422Z,-2.62
2023-01-25T07:07:41.076Z,-2.92
2023-01-25T07:10:43.443Z,-2.71
2023-01-25T07:13:46.997Z,-2.84
2023-01-25T07:16:49.504Z,-2.70
2023-01-25T07:19:51.931Z,-2.54
2023-01-25T07:22:54.276Z,-2.47
2023-01-25T07:25:58.296Z,-2.66
2023-01-25T07:29:00.890Z,-2.74
2023-01-25T07:32:06.734Z,-2.74
2023-01-25T07:35:09.677Z,-2.79
2023-01-25T07:38:13.963Z,-2.68
2023-01-25T07:41:17.280Z,-2.80
2023-01-25T07:44:19.666Z,-3.04
2023-01-25T07:47:25.502Z,-3.16
2023-01-25T07:50:28.634Z,-2.69
2023-01-25T07:53:31.019Z,-2.70
2023-01-25T07:56:35.645Z,-2.64
2023-01-25T07:59:38.047Z,-2.59
2023-01-25T08:02:40.988Z,-2.60
2023-01-25T08:05:46.428Z,-2.95
2023-01-25T08:08:49.776Z,-3.24
2023-01-25T08:11:53.755Z,-2.61
2023-01-25T08:14:56.487Z,-2.58
2023-01-25T08:18:01.840Z,-2.42
2023-01-25T08:21:04.483Z,-2.50
2023-01-25T08:24:08.306Z,-2.40
2023-01-25T08:27:10.492Z,-2.29
2023-01-25T08:30:13.251Z,-2.28
2023-01-25T08:33:15.566Z,-2.27
2023-01-25T08:36:19.194Z,-2.28
2023-01-25T08:39:21.598Z,-2.52
2023-01-25T08:42:24.747Z,-2.94
2023-01-25T08:45:27.073Z,-2.67
2023-01-25T08:48:29.552Z,-2.24
2023-01-25T08:51:32.774Z,-2.07
2023-01-25T08:54:35.089Z,-2.35
2023-01-25T08:57:37.418Z,-2.13
2023-01-25T09:00:41.430Z,-2.36
2023-01-25T09:03:45.468Z,-1.84
2023-01-25T09:06:47.856Z,-1.91
2023-01-25T09:09:50.245Z,-2.00
2023-01-25T09:12:52.781Z,-2.07
2023-01-25T09:16:06.551Z,-1.97
2023-01-25T09:19:08.871Z,-2.03
2023-01-25T09:22:11.105Z,-2.14
2023-01-25T09:25:13.478Z,-2.08
2023-01-25T09:28:15.805Z,-2.18
2023-01-25T09:31:22.623Z,-1.79
2023-01-25T09:34:37.955Z,-1.94
2023-01-25T09:37:40.279Z,-1.97
2023-01-25T09:40:46.942Z,-1.81
2023-01-25T09:44:19.907Z,-1.96
2023-01-25T09:47:54.066Z,-1.94
2023-01-25T09:51:08.628Z,-2.07
2023-01-25T09:54:11.399Z,-2.40
2023-01-25T09:57:17.531Z,-2.04
2023-01-25T10:00:49.692Z,-1.92
2023-01-25T10:04:00.323Z,-1.87
2023-01-25T10:07:20.383Z,-1.83
2023-01-25T10:10:29.946Z,-2.15
2023-01-25T10:13:32.279Z,-2.01
2023-01-25T10:16:47.358Z,-2.07
2023-01-25T10:20:04.613Z,-2.08
2023-01-25T10:23:18.989Z,-2.02
2023-01-25T10:26:26.785Z,-1.94
2023-01-25T10:29:32.531Z,-1.96
2023-01-25T10:32:39.675Z,-2.06
2023-01-25T10:35:50.298Z,-2.21
2023-01-25T10:38:59.277Z,-2.24
2023-01-25T10:42:10.438Z,-2.12
2023-01-25T10:45:13.856Z,-1.97
2023-01-25T10:48:36.447Z,-2.28
2023-01-25T10:51:38.746Z,-2.46
2023-01-25T10:54:41.091Z,-2.17
2023-01-25T10:57:45.586Z,-1.98
2023-01-25T11:00:52.555Z,-1.99
2023-01-25T11:03:55.190Z,-1.81
2023-01-25T11:06:57.945Z,-1.87
2023-01-25T11:10:00.614Z,-1.75
2023-01-25T11:13:21.119Z,-2.11
2023-01-25T11:16:39.302Z,-2.22
2023-01-25T11:19:41.687Z,-2.25
2023-01-25T11:22:50.936Z,-2.23
2023-01-25T11:25:53.772Z,-1.87
2023-01-25T11:29:17.189Z,-1.78
2023-01-25T11:32:22.756Z,-1.67
2023-01-25T11:35:29.921Z,-1.84
2023-01-25T11:38:32.452Z,-1.95
2023-01-25T11:41:50.064Z,-1.63
2023-01-25T11:44:59.578Z,-1.55
2023-01-25T11:48:13.569Z,-1.35
2023-01-25T11:51:21.645Z,-1.21
2023-01-25T11:54:36.521Z,-1.81
2023-01-25T11:57:38.744Z,-1.50
2023-01-25T12:01:05.516Z,-1.75
2023-01-25T12:04:41.061Z,-1.78
2023-01-25T12:08:02.300Z,-1.45
2023-01-25T12:11:14.422Z,-1.52
2023-01-25T12:14:45.296Z,-1.65
2023-01-25T12:18:14.743Z,-1.45
2023-01-25T12:21:31.188Z,-1.20
2023-01-25T12:25:14.924Z,-1.49
2023-01-25T12:28:55.454Z,-1.55
2023-01-25T12:31:59.314Z,-1.48
2023-01-25T12:35:14.035Z,-1.42
2023-01-25T12:38:39.412Z,-1.37
2023-01-25T12:41:59.440Z,-1.55
2023-01-25T12:45:27.816Z,-1.73
2023-01-25T12:48:36.746Z,-1.42
2023-01-25T12:51:41.342Z,-1.61
2023-01-25T12:54:45.707Z,-1.97
2023-01-25T12:57:59.279Z,-1.85
2023-01-25T13:01:20.315Z,-1.45
2023-01-25T13:04:28.574Z,-1.55
2023-01-25T13:07:37.975Z,-1.50
2023-01-25T13:10:47.326Z,-1.56
2023-01-25T13:13:49.766Z,-1.62
2023-01-25T13:17:09.025Z,-1.32
2023-01-25T13:20:39.757Z,-1.49
2023-01-25T13:23:52.219Z,-1.57
2023-01-25T13:26:54.548Z,-1.59
2023-01-25T13:30:01.593Z,-1.79
2023-01-25T13:33:07.234Z,-1.49
2023-01-25T13:36:37.711Z,-1.57
2023-01-25T13:39:45.441Z,-1.66
2023-01-25T13:43:03.829Z,-1.53
2023-01-25T13:46:08.602Z,-1.51
2023-01-25T13:49:19.605Z,-2.02
2023-01-25T13:52:23.659Z,-1.64
2023-01-25T13:55:26.360Z,-1.73
2023-01-25T13:58:33.199Z,-1.91
2023-01-25T14:01:36.886Z,-1.63
2023-01-25T14:04:39.533Z,-1.47
2023-01-25T14:07:44.624Z,-1.53
2023-01-25T14:10:48.125Z,-1.50
2023-01-25T14:14:20.294Z,-1.57
2023-01-25T14:17:23.848Z,-1.83
2023-01-25T14:20:26.336Z,-1.69
2023-01-25T14:23:30.793Z,-1.64
2023-01-25T14:26:33.000Z,-1.55
2023-01-25T14:29:35.711Z,-1.41
2023-01-25T14:32:38.153Z,-1.46
2023-01-25T14:35:53.764Z,-1.42
2023-01-25T14:38:57.861Z,-1.55
2023-01-25T14:42:01.945Z,-1.58
2023-01-25T14:45:04.842Z,-1.65
2023-01-25T14:48:33.807Z,-1.42
2023-01-25T14:51:41.763Z,-1.77
2023-01-25T14:54:53.171Z,-1.62
2023-01-25T14:58:02.317Z,-1.45
2023-01-25T15:01:04.865Z,-1.52
2023-01-25T15:04:12.456Z,-1.52
2023-01-25T15:07:41.860Z,-1.89
2023-01-25T15:10:55.701Z,-1.93
2023-01-25T15:14:02.723Z,-1.61
2023-01-25T15:17:05.045Z,-1.88
2023-01-25T15:20:08.605Z,-1.90
2023-01-25T15:23:25.989Z,-1.67
2023-01-25T15:26:36.032Z,-1.58
2023-01-25T15:29:40.282Z,-1.72
2023-01-25T15:32:42.947Z,-1.86
2023-01-25T15:35:45.386Z,-1.93
2023-01-25T15:38:49.329Z,-2.03
2023-01-25T15:41:51.770Z,-2.05
2023-01-25T15:44:54.065Z,-2.09
2023-01-25T15:47:56.456Z,-2.24
2023-01-25T15:50:58.948Z,-2.09
2023-01-25T15:54:01.469Z,-2.13
2023-01-25T15:57:03.964Z,-2.16
2023-01-25T16:00:06.934Z,-2.09
2023-01-25T16:03:09.355Z,-2.34
2023-01-25T16:06:44.387Z,-2.12
2023-01-25T16:09:46.954Z,-1.97
2023-01-25T16:12:49.621Z,-2.02
2023-01-25T16:15:54.103Z,-2.13
2023-01-25T16:18:56.531Z,-2.26
2023-01-25T16:21:59.176Z,-2.18
2023-01-25T16:25:01.559Z,-2.34
2023-01-25T16:28:04.980Z,-2.39
2023-01-25T16:31:07.557Z,-2.14
2023-01-25T16:34:10.106Z,-2.34
2023-01-25T16:37:18.827Z,-2.58
2023-01-25T16:40:36.695Z,-2.22
2023-01-25T16:43:45.519Z,-2.21
2023-01-25T16:46:51.227Z,-2.11
2023-01-25T16:49:53.633Z,-2.27
2023-01-25T16:52:57.070Z,-2.05
2023-01-25T16:56:00.168Z,-2.09
2023-01-25T16:59:05.209Z,-2.05
2023-01-25T17:02:07.665Z,-1.93
2023-01-25T17:05:11.386Z,-1.92
2023-01-25T17:08:13.704Z,-2.02
2023-01-25T17:11:19.020Z,-1.86
2023-01-25T17:14:22.446Z,-1.85
2023-01-25T17:17:27.636Z,-2.08
2023-01-25T17:20:30.186Z,-2.06
2023-01-25T17:23:36.895Z,-2.46
2023-01-25T17:26:40.959Z,-2.35
2023-01-25T17:29:43.877Z,-2.18
2023-01-25T17:32:46.555Z,-2.22
2023-01-25T17:35:52.660Z,-1.91
2023-01-25T17:38:55.638Z,-2.18
2023-01-25T17:41:59.594Z,-2.09
2023-01-25T17:45:02.289Z,-2.12
2023-01-25T17:48:07.662Z,-1.99
2023-01-25T17:51:10.239Z,-1.94
2023-01-25T17:54:13.294Z,-1.92
2023-01-25T17:57:18.196Z,-2.00
2023-01-25T18:00:20.969Z,-2.15
2023-01-25T18:03:23.506Z,-2.03
2023-01-25T18:06:29.661Z,-2.01
2023-01-25T18:09:33.835Z,-1.66
2023-01-25T18:12:36.466Z,-1.78
2023-01-25T18:15:39.339Z,-2.25
2023-01-25T18:18:43.454Z,-2.07
2023-01-25T18:21:46.685Z,-1.96
2023-01-25T18:24:49.265Z,-2.21
2023-01-25T18:27:51.828Z,-2.29
2023-01-25T18:31:04.300Z,-2.08
2023-01-25T18:34:06.826Z,-2.03
2023-01-25T18:37:18.378Z,-1.63
2023-01-25T18:40:20.902Z,-2.00
2023-01-25T18:43:23.884Z,-2.02
2023-01-25T18:46:26.373Z,-1.92
2023-01-25T18:49:28.851Z,-2.03
2023-01-25T18:52:31.202Z,-1.97
2023-01-25T18:55:33.699Z,-2.00
2023-01-25T18:58:37.535Z,-1.76
2023-01-25T19:01:39.876Z,-1.90
2023-01-25T19:04:42.248Z,-2.02
2023-01-25T19:07:44.573Z,-1.92
2023-01-25T19:10:47.016Z,-2.08
2023-01-25T19:13:50.494Z,-2.25
2023-01-25T19:16:54.436Z,-2.05
2023-01-25T19:19:56.715Z,-1.70
2023-01-25T19:22:59.096Z,-2.06
2023-01-25T19:26:01.467Z,-1.77
2023-01-25T19:29:04.392Z,-2.00
2023-01-25T19:32:06.945Z,-1.95
2023-01-25T19:35:09.592Z,-1.88
2023-01-25T19:38:12.244Z,-1.98
2023-01-25T19:41:18.812Z,-1.72
2023-01-25T19:44:21.494Z,-1.67
2023-01-25T19:47:23.926Z,-1.55
2023-01-25T19:50:26.391Z,-1.67
2023-01-25T19:53:28.763Z,-1.65
2023-01-25T19:56:36.782Z,-1.68
2023-01-25T19:59:39.205Z,-1.87
2023-01-25T20:02:42.153Z,-1.86
2023-01-25T20:05:44.742Z,-1.79
2023-01-25T20:08:48.346Z,-1.90
2023-01-25T20:11:50.690Z,-1.59
2023-01-25T20:14:53.234Z,-1.67
2023-01-25T20:17:55.799Z,-1.87
2023-01-25T20:20:59.729Z,-1.96
2023-01-25T20:24:03.588Z,-1.75
2023-01-25T20:27:07.504Z,-1.87
2023-01-25T20:30:10.076Z,-2.00
2023-01-25T20:33:13.170Z,-2.04
2023-01-25T20:36:15.728Z,-1.83
2023-01-25T20:39:22.971Z,-1.66
2023-01-25T20:42:25.377Z,-1.78
2023-01-25T20:45:27.734Z,-1.74
2023-01-25T20:48:36.411Z,-1.81
2023-01-25T20:51:39.095Z,-1.85
2023-01-25T20:54:41.905Z,-1.80
2023-01-25T20:57:44.397Z,-1.94
2023-01-25T21:00:46.919Z,-1.70
2023-01-25T21:03:49.926Z,-1.85
2023-01-25T21:06:52.226Z,-2.11
2023-01-25T21:09:54.586Z,-2.23
2023-01-25T21:12:56.861Z,-1.79
2023-01-25T21:16:12.449Z,-1.81
2023-01-25T21:19:14.797Z,-1.78
2023-01-25T21:22:17.216Z,-1.78
2023-01-25T21:25:19.758Z,-1.86
2023-01-25T21:28:22.081Z,-1.78
2023-01-25T21:31:26.876Z,-1.92
2023-01-25T21:34:31.066Z,-1.83
2023-01-25T21:37:33.633Z,-1.77
2023-01-25T21:40:36.606Z,-1.84
2023-01-25T21:43:57.917Z,-1.92
2023-01-25T21:47:28.465Z,-1.86
2023-01-25T21:50:41.163Z,-1.70
2023-01-25T21:53:48.576Z,-1.70
2023-01-25T21:56:53.431Z,-1.72
2023-01-25T21:59:55.853Z,-1.72
2023-01-25T22:02:58.741Z,-1.55
2023-01-25T22:06:01.104Z,-1.53
2023-01-25T22:09:04.322Z,-1.37
2023-01-25T22:12:06.826Z,-1.34
2023-01-25T22:15:09.650Z,-1.49
2023-01-25T22:18:12.329Z,-1.60
2023-01-25T22:21:23.220Z,-1.53
2023-01-25T22:24:25.691Z,-1.67
2023-01-25T22:27:32.079Z,-1.64
2023-01-25T22:30:34.500Z,-1.59
2023-01-25T22:33:37.093Z,-1.78
2023-01-25T22:36:39.498Z,-1.57
2023-01-25T22:39:42.084Z,-1.67
2023-01-25T22:42:44.377Z,-1.73
2023-01-25T22:45:52.040Z,-1.86
2023-01-25T22:48:56.922Z,-2.03
2023-01-25T22:52:00.824Z,-1.83
2023-01-25T22:55:04.688Z,-1.80
2023-01-25T22:58:08.837Z,-1.77
2023-01-25T23:01:14.588Z,-1.73
2023-01-25T23:04:17.723Z,-1.57
2023-01-25T23:07:20.452Z,-1.69
2023-01-25T23:10:23.202Z,-1.74
2023-01-25T23:13:25.755Z,-1.62
2023-01-25T23:16:28.318Z,-1.67
2023-01-25T23:19:30.726Z,-1.47
2023-01-25T23:22:33.277Z,-1.40
2023-01-25T23:25:35.689Z,-1.42
2023-01-25T23:28:38.414Z,-1.24
2023-01-25T23:31:40.872Z,-1.39
2023-01-25T23:34:44.953Z,-1.57
2023-01-25T23:37:48.711Z,-1.57
2023-01-25T23:40:51.377Z,-1.49
2023-01-25T23:43:55.197Z,-1.66
2023-01-25T23:46:57.964Z,-1.64
2023-01-25T23:50:00.871Z,-1.56
2023-01-25T23:53:05.302Z,-1.54
2023-01-25T23:56:10.825Z,-1.48
2023-01-25T23:59:13.512Z,-1.48
